Time;durP1;ratioP1;P1;durP2;ratioP2;P2;SDS_P1;SDS_P2;PMS_P1;PMS_P2;Temp;Humidity;BMP_temperature;BMP_pressure;BME280_temperature;BME280_humidity;BME280_pressure;Samples;Min_cycle;Max_cycle;Signal;HPM_P1;HPM_P2
2024/02/17 00:00:38;;;;;;;17.00;9.70;;;;;;;12.42;88.42;100353.64;681644;1265;139223;-83
2024/02/17 00:16:02;;;;;;;17.40;10.50;;;;;;;12.24;90.49;100353.71;681614;1266;139679;-84
2024/02/17 00:31:06;;;;;;;17.50;10.60;;;;;;;12.24;92.14;100353.89;681955;1266;140163;-83
2024/02/17 00:46:10;;;;;;;18.70;11.20;;;;;;;12.22;93.80;100350.56;681764;1265;139141;-83
2024/02/17 01:01:14;;;;;;;21.00;10.90;;;;;;;12.21;95.34;100352.59;681780;1265;138922;-84
2024/02/17 01:16:31;;;;;;;24.00;12.50;;;;;;;12.31;95.48;100352.33;681691;1268;139377;-84
2024/02/17 01:31:35;;;;;;;21.40;13.00;;;;;;;12.36;96.02;100356.11;681975;1265;138965;-84
2024/02/17 01:46:38;;;;;;;36.10;18.90;;;;;;;12.40;96.46;100356.94;681851;1274;139108;-83
2024/02/17 02:01:43;;;;;;;65.30;30.90;;;;;;;12.53;96.21;100353.52;681730;1264;140089;-83
2024/02/17 02:16:49;;;;;;;24.20;13.90;;;;;;;12.41;97.68;100363.87;681689;1266;139140;-85
2024/02/17 02:31:54;;;;;;;25.20;15.60;;;;;;;12.16;99.93;100363.02;681903;1267;139074;-84
2024/02/17 02:46:58;;;;;;;39.10;21.10;;;;;;;12.02;100.00;100357.85;681936;1266;138861;-84
2024/02/17 03:02:03;;;;;;;58.50;29.30;;;;;;;11.95;100.00;100367.71;681663;1264;139407;-83
2024/02/17 03:17:07;;;;;;;37.30;22.20;;;;;;;11.95;100.00;100386.84;681717;1266;139040;-84
2024/02/17 03:32:11;;;;;;;30.10;17.10;;;;;;;11.90;100.00;100410.83;681639;1263;139226;-83
2024/02/17 03:47:14;;;;;;;28.60;18.30;;;;;;;12.08;100.00;100413.09;681846;1267;141239;-82
2024/02/17 04:02:18;;;;;;;29.00;16.60;;;;;;;12.13;100.00;100420.46;681592;1260;139894;-82
2024/02/17 04:17:22;;;;;;;23.50;15.40;;;;;;;12.17;100.00;100414.16;681814;1260;138906;-82
2024/02/17 04:32:26;;;;;;;26.30;15.80;;;;;;;12.21;100.00;100423.96;681719;1260;139072;-83
2024/02/17 04:47:30;;;;;;;25.40;15.00;;;;;;;12.28;100.00;100428.89;681713;1263;142087;-82
2024/02/17 05:02:37;;;;;;;26.30;15.20;;;;;;;12.29;100.00;100445.87;681622;1262;140160;-82
2024/02/17 05:17:43;;;;;;;21.60;14.00;;;;;;;12.33;100.00;100451.98;681777;1266;139147;-82
2024/02/17 05:32:47;;;;;;;24.60;15.70;;;;;;;12.32;100.00;100460.12;681769;1260;140203;-81
2024/02/17 05:47:54;;;;;;;25.60;15.00;;;;;;;12.45;100.00;100476.09;681851;1260;139269;-83
2024/02/17 06:02:58;;;;;;;24.50;14.80;;;;;;;12.42;100.00;100497.59;681780;1260;139234;-81
2024/02/17 06:33:45;;;;;;;23.70;14.70;;;;;;;12.44;100.00;100530.57;681186;1260;140764;-81
2024/02/17 06:48:50;;;;;;;19.80;12.50;;;;;;;12.52;100.00;100556.55;682044;1260;139892;-80
2024/02/17 07:03:55;;;;;;;21.00;12.60;;;;;;;12.54;100.00;100576.30;681995;1264;139313;-80
2024/02/17 07:18:59;;;;;;;17.60;10.90;;;;;;;12.65;100.00;100599.50;682115;1264;140245;-79
2024/02/17 07:34:03;;;;;;;11.30;7.70;;;;;;;12.66;100.00;100616.41;682065;1263;140370;-81
2024/02/17 07:49:07;;;;;;;43.00;23.10;;;;;;;12.63;100.00;100629.67;681984;1264;139105;-80
2024/02/17 08:04:11;;;;;;;16.60;11.10;;;;;;;12.79;100.00;100633.54;681978;1264;140290;-80
2024/02/17 08:19:16;;;;;;;11.80;6.70;;;;;;;12.97;100.00;100651.70;682116;1264;140729;-79
2024/02/17 08:34:20;;;;;;;13.10;7.80;;;;;;;13.68;100.00;100671.14;681965;1264;139434;-79
2024/02/17 08:49:24;;;;;;;11.00;7.00;;;;;;;13.61;99.97;100684.08;681999;1264;139917;-79
2024/02/17 09:04:27;;;;;;;41.60;25.30;;;;;;;13.43;99.95;100686.86;681974;1261;139267;-79
2024/02/17 09:19:32;;;;;;;50.90;27.40;;;;;;;13.41;100.00;100698.29;682167;1264;139255;-78
2024/02/17 09:34:36;;;;;;;41.00;21.30;;;;;;;13.78;99.83;100704.64;681925;1273;139669;-78
2024/02/17 09:49:40;;;;;;;30.00;18.30;;;;;;;14.01;97.95;100712.30;682160;1265;142382;-78
2024/02/17 10:04:57;;;;;;;17.60;8.50;;;;;;;14.08;96.30;100714.45;681908;1264;140761;-79
2024/02/17 10:20:02;;;;;;;17.80;7.40;;;;;;;16.74;90.73;100706.27;682036;1261;140139;-79
2024/02/17 10:35:08;;;;;;;10.70;6.00;;;;;;;16.12;85.16;100713.20;682212;1262;139767;-78
2024/02/17 10:50:13;;;;;;;5.30;4.00;;;;;;;15.18;83.64;100714.60;681882;1260;140374;-78
2024/02/17 11:05:21;;;;;;;;;;;;;;;14.75;82.75;100728.53;682126;1261;140166;-78
2024/02/17 11:20:25;;;;;;;6.50;2.80;;;;;;;13.85;82.93;100794.44;681862;1264;199432;-78
2024/02/17 11:35:30;;;;;;;10.20;6.30;;;;;;;12.50;85.78;100819.97;682009;1264;139054;-80
2024/02/17 11:50:40;;;;;;;11.50;6.00;;;;;;;12.16;88.03;100851.48;681935;1264;139129;-80
2024/02/17 12:05:44;;;;;;;26.00;10.60;;;;;;;11.83;88.88;100881.26;682106;1264;139344;-79
2024/02/17 12:20:49;;;;;;;6.80;3.10;;;;;;;11.73;87.72;100902.91;682047;1260;140645;-80
2024/02/17 12:35:54;;;;;;;26.40;10.30;;;;;;;11.62;86.06;100919.77;681883;1264;141441;-80
2024/02/17 12:50:58;;;;;;;9.90;3.90;;;;;;;11.45;84.73;100951.14;682002;1265;138885;-80
2024/02/17 13:06:03;;;;;;;8.60;4.10;;;;;;;11.58;82.83;100966.53;682065;1264;139705;-79
2024/02/17 13:21:08;;;;;;;6.00;3.10;;;;;;;11.65;81.28;100986.48;682214;1265;139196;-79
2024/02/17 13:36:12;;;;;;;13.40;6.20;;;;;;;11.41;79.58;101006.61;681879;1262;139447;-79
2024/02/17 13:51:16;;;;;;;22.60;12.70;;;;;;;11.16;79.00;101037.96;681986;1264;139685;-80
2024/02/17 14:06:19;;;;;;;192.10;74.20;;;;;;;11.01;78.36;101062.45;682060;1264;139807;-80
2024/02/17 14:21:24;;;;;;;51.20;29.80;;;;;;;10.80;79.38;101098.68;682222;1264;138979;-79
2024/02/17 14:36:30;;;;;;;29.10;15.00;;;;;;;10.53;80.88;101130.29;681934;1264;140231;-79
2024/02/17 14:51:33;;;;;;;30.00;18.00;;;;;;;10.49;81.07;101141.02;682092;1265;139527;-79
2024/02/17 15:06:37;;;;;;;54.90;24.40;;;;;;;10.55;81.15;101172.61;681933;1265;139798;-81
2024/02/17 15:21:43;;;;;;;33.40;19.40;;;;;;;10.56;81.53;101196.67;681955;1265;139104;-80
2024/02/17 15:36:50;;;;;;;49.70;27.50;;;;;;;10.37;82.36;101220.07;681846;1264;139873;-79
2024/02/17 15:51:54;;;;;;;120.80;36.50;;;;;;;10.27;82.89;101244.33;681952;1268;139205;-79
2024/02/17 16:06:58;;;;;;;66.20;22.10;;;;;;;10.21;83.21;101257.94;682069;1264;139317;-79
2024/02/17 16:22:04;;;;;;;41.60;13.70;;;;;;;10.13;82.80;101284.20;682060;1264;139162;-80
2024/02/17 16:37:09;;;;;;;14.10;7.20;;;;;;;10.10;82.80;101325.09;681903;1265;139183;-80
2024/02/17 16:52:12;;;;;;;18.30;10.10;;;;;;;9.81;84.58;101375.62;682122;1274;138870;-79
2024/02/17 17:07:17;;;;;;;30.30;14.60;;;;;;;9.18;85.58;101435.78;682045;1269;139901;-79
2024/02/17 17:22:20;;;;;;;58.80;20.40;;;;;;;8.70;86.50;101489.04;682036;1266;139261;-79
2024/02/17 17:37:43;;;;;;;25.90;10.80;;;;;;;8.45;85.93;101519.30;681890;1267;139579;-79
2024/02/17 17:52:52;;;;;;;25.90;10.50;;;;;;;8.08;85.28;101545.27;682151;1266;140735;-78
2024/02/17 18:07:55;;;;;;;23.60;10.80;;;;;;;7.81;84.57;101575.18;682006;1264;140299;-79
2024/02/17 18:23:00;;;;;;;79.80;27.30;;;;;;;7.53;82.94;101613.63;682092;1264;138716;-80
2024/02/17 18:38:05;;;;;;;23.20;9.60;;;;;;;7.31;81.58;101661.27;681929;1260;138968;-79
2024/02/17 18:53:13;;;;;;;39.70;14.40;;;;;;;7.06;80.20;101687.65;682172;1264;138383;-79
2024/02/17 19:08:16;;;;;;;61.60;19.70;;;;;;;7.01;80.82;101696.02;682037;1260;139591;-79
2024/02/17 19:23:21;;;;;;;49.60;13.80;;;;;;;6.97;80.64;101709.98;681992;1260;138594;-79
2024/02/17 19:38:25;;;;;;;90.30;19.40;;;;;;;6.81;80.46;101734.27;681946;1261;139854;-79
2024/02/17 19:53:29;;;;;;;20.60;9.20;;;;;;;6.83;78.78;101771.73;682197;1263;140297;-78
2024/02/17 20:08:39;;;;;;;16.70;7.50;;;;;;;6.74;77.67;101797.71;682099;1260;138465;-79
2024/02/17 20:23:44;;;;;;;12.00;5.60;;;;;;;6.75;76.72;101819.05;681722;1260;138893;-80
2024/02/17 20:38:53;;;;;;;24.40;8.10;;;;;;;6.76;76.46;101846.83;681807;1263;139509;-80
2024/02/17 20:53:59;;;;;;;23.00;9.50;;;;;;;6.82;76.00;101860.78;681907;1261;140337;-80
2024/02/17 21:09:07;;;;;;;11.00;5.20;;;;;;;6.94;76.25;101868.07;681974;1273;140079;-80
2024/02/17 21:24:24;;;;;;;8.50;3.80;;;;;;;7.02;76.15;101881.81;681877;1260;139418;-78
2024/02/17 21:39:30;;;;;;;37.60;9.80;;;;;;;7.00;75.84;101898.56;681971;1264;139664;-79
2024/02/17 21:54:33;;;;;;;32.90;9.90;;;;;;;7.03;74.59;101909.77;681876;1260;138963;-79
2024/02/17 22:09:37;;;;;;;5.50;2.70;;;;;;;7.09;74.38;101924.59;682073;1260;139304;-79
2024/02/17 22:24:40;;;;;;;9.90;3.80;;;;;;;7.09;74.81;101939.02;681812;1261;138750;-79
2024/02/17 22:39:44;;;;;;;6.30;3.00;;;;;;;7.11;74.68;101953.91;681943;1264;142257;-79
2024/02/17 22:54:49;;;;;;;5.40;2.60;;;;;;;7.11;74.59;101967.64;681965;1264;139093;-80
2024/02/17 23:09:52;;;;;;;8.50;3.20;;;;;;;7.10;73.86;101970.46;682023;1264;140050;-80
2024/02/17 23:24:57;;;;;;;4.50;2.40;;;;;;;7.13;73.24;101978.16;681559;1260;185565;-78
2024/02/17 23:40:02;;;;;;;5.80;2.90;;;;;;;7.03;73.37;101999.19;682009;1268;138901;-80
2024/02/17 23:55:08;;;;;;;9.50;4.90;;;;;;;6.71;73.01;102009.63;681876;1261;140018;-80
